Time;durP1;ratioP1;P1;durP2;ratioP2;P2;SDS_P1;SDS_P2;PMS_P1;PMS_P2;Temp;Humidity;BMP_temperature;BMP_pressure;BME280_temperature;BME280_humidity;BME280_pressure;Samples;Min_cycle;Max_cycle;Signal;HPM_P1;HPM_P2
2022/05/11 00:01:10;;;;;;;3.40;2.50;;;21.90;70.20;;;;;;5051761;28;20177;-70
2022/05/11 00:03:40;;;;;;;2.90;2.42;;;21.80;70.50;;;;;;5042550;28;20313;-70
2022/05/11 00:06:09;;;;;;;3.05;2.10;;;21.80;69.90;;;;;;5049685;28;20205;-70
2022/05/11 00:08:35;;;;;;;4.28;2.50;;;21.70;70.00;;;;;;5080735;28;20199;-70
2022/05/11 00:11:02;;;;;;;4.60;2.80;;;21.70;70.30;;;;;;5049690;28;20540;-70
2022/05/11 00:13:28;;;;;;;4.28;2.70;;;21.60;70.30;;;;;;5051412;28;20177;-71
2022/05/11 00:15:56;;;;;;;4.03;2.80;;;21.60;70.50;;;;;;5048958;28;20276;-70
2022/05/11 00:18:24;;;;;;;3.65;2.63;;;21.50;71.00;;;;;;5052672;28;20222;-71
2022/05/11 00:20:50;;;;;;;2.72;2.20;;;21.50;70.90;;;;;;5066042;28;20193;-70
2022/05/11 00:23:15;;;;;;;2.78;2.35;;;21.40;71.00;;;;;;5066586;28;20186;-70
2022/05/11 00:25:45;;;;;;;4.22;2.80;;;21.40;71.30;;;;;;5052842;28;20204;-71
2022/05/11 00:28:12;;;;;;;3.78;2.58;;;21.30;71.40;;;;;;5046651;28;20201;-70
2022/05/11 00:30:38;;;;;;;3.75;2.80;;;21.30;71.70;;;;;;5037202;28;20189;-70
2022/05/11 00:33:03;;;;;;;4.22;2.50;;;21.20;72.00;;;;;;5060714;28;20173;-70
2022/05/11 00:35:33;;;;;;;3.15;2.40;;;21.10;72.00;;;;;;5054746;28;20187;-70
2022/05/11 00:38:02;;;;;;;2.60;2.33;;;21.10;72.50;;;;;;5059611;28;20187;-70
2022/05/11 00:40:28;;;;;;;3.60;2.58;;;21.10;73.20;;;;;;5042766;28;20228;-70
2022/05/11 00:42:53;;;;;;;4.00;2.75;;;21.10;73.00;;;;;;5040423;28;20181;-69
2022/05/11 00:45:22;;;;;;;4.13;2.55;;;21.00;73.20;;;;;;5034830;28;20216;-70
2022/05/11 00:49:33;;;;;;;4.50;2.50;;;21.00;73.60;;;;;;5048240;28;20187;-70
2022/05/11 00:50:50;;;;;;;4.50;2.60;;;21.00;75.10;;;;;;5051103;28;20195;-67
2022/05/11 00:53:17;;;;;;;5.35;2.45;;;21.00;73.90;;;;;;5059981;28;20208;-70
2022/05/11 00:55:57;;;;;;;3.40;2.40;;;20.90;73.80;;;;;;5046090;28;20181;-70
2022/05/11 00:58:33;;;;;;;4.53;2.33;;;20.90;74.60;;;;;;5055035;28;20169;-70
2022/05/11 01:01:01;;;;;;;4.97;2.13;;;20.90;74.10;;;;;;5049527;28;20166;-70
2022/05/11 01:03:40;;;;;;;3.22;2.20;;;20.90;73.50;;;;;;5041412;28;20174;-70
2022/05/11 01:06:08;;;;;;;3.92;2.22;;;20.90;74.80;;;;;;5045590;28;20322;-70
2022/05/11 01:08:33;;;;;;;5.43;2.17;;;20.90;74.10;;;;;;5057533;28;20166;-70
2022/05/11 01:11:06;;;;;;;3.83;2.33;;;20.90;73.90;;;;;;5052736;28;20234;-70
2022/05/11 01:13:38;;;;;;;3.22;2.17;;;20.80;74.40;;;;;;5045371;28;20262;-70
2022/05/11 01:16:06;;;;;;;2.58;1.85;;;20.80;74.60;;;;;;5039805;28;20201;-70
2022/05/11 01:18:40;;;;;;;4.57;2.03;;;20.80;74.00;;;;;;5055066;28;20291;-71
2022/05/11 01:21:07;;;;;;;3.35;2.20;;;20.70;74.40;;;;;;5040204;28;20174;-70
2022/05/11 01:23:52;;;;;;;3.65;2.30;;;20.70;74.20;;;;;;5052481;28;20181;-70
2022/05/11 01:26:18;;;;;;;4.93;2.20;;;20.70;75.50;;;;;;5072231;28;20200;-70
2022/05/11 01:28:54;;;;;;;2.80;1.88;;;20.60;74.60;;;;;;5072487;28;20173;-70
2022/05/11 01:31:20;;;;;;;3.17;2.08;;;20.60;74.70;;;;;;5068104;28;20171;-70
2022/05/11 01:33:47;;;;;;;3.83;2.28;;;20.50;74.10;;;;;;5043540;28;20174;-70
2022/05/11 01:36:31;;;;;;;3.13;2.25;;;20.50;74.60;;;;;;5043035;28;20189;-70
2022/05/11 01:39:01;;;;;;;2.72;2.00;;;20.50;75.90;;;;;;5052059;28;20184;-70
2022/05/11 01:41:34;;;;;;;3.85;2.05;;;20.50;75.50;;;;;;5037813;28;20205;-71
2022/05/11 01:44:04;;;;;;;4.47;2.20;;;20.40;75.10;;;;;;5041414;28;20182;-70
2022/05/11 01:46:36;;;;;;;2.92;2.28;;;20.40;75.40;;;;;;5039830;28;20189;-71
2022/05/11 01:49:02;;;;;;;2.90;2.17;;;20.40;75.50;;;;;;5045556;28;20193;-70
2022/05/11 01:51:30;;;;;;;2.75;2.10;;;20.40;75.90;;;;;;5045792;28;20212;-72
2022/05/11 01:53:56;;;;;;;3.58;2.03;;;20.40;76.30;;;;;;5048467;28;20189;-70
2022/05/11 01:56:24;;;;;;;3.67;2.45;;;20.30;75.90;;;;;;5049805;28;20205;-70
2022/05/11 01:58:51;;;;;;;3.40;2.38;;;20.30;76.00;;;;;;5045060;28;20203;-70
2022/05/11 02:01:20;;;;;;;4.30;2.50;;;20.30;76.20;;;;;;5054932;28;20188;-71
2022/05/11 02:03:48;;;;;;;3.35;2.05;;;20.30;76.70;;;;;;5051386;28;20299;-70
2022/05/11 02:08:59;;;;;;;4.50;2.45;;;20.30;77.60;;;;;;5059243;28;20247;-70
2022/05/11 02:11:30;;;;;;;4.57;2.25;;;20.30;76.90;;;;;;5052899;28;20198;-70
2022/05/11 02:13:58;;;;;;;3.35;2.28;;;20.30;77.30;;;;;;5035404;28;20178;-70
2022/05/11 02:16:29;;;;;;;4.57;2.10;;;20.30;77.00;;;;;;5059299;28;20231;-70
2022/05/11 02:18:55;;;;;;;3.30;2.28;;;20.30;77.40;;;;;;5047899;28;20206;-70
2022/05/11 02:21:21;;;;;;;3.83;2.42;;;20.30;77.30;;;;;;5055056;28;20177;-71
2022/05/11 02:23:50;;;;;;;4.78;2.50;;;20.20;77.50;;;;;;5070036;28;20193;-70
2022/05/11 02:26:17;;;;;;;3.47;2.50;;;20.20;77.60;;;;;;5051100;28;20279;-70
2022/05/11 02:28:43;;;;;;;3.22;2.25;;;20.20;77.80;;;;;;5050072;28;20189;-70
2022/05/11 02:31:09;;;;;;;4.03;2.35;;;20.20;78.10;;;;;;5049169;28;20170;-70
2022/05/11 02:33:37;;;;;;;4.55;2.38;;;20.20;78.40;;;;;;5044722;28;20185;-70
2022/05/11 02:36:05;;;;;;;3.33;2.40;;;20.20;78.80;;;;;;5060359;28;20176;-70
2022/05/11 02:38:35;;;;;;;3.70;2.40;;;20.20;79.00;;;;;;5062131;28;20184;-70
2022/05/11 02:41:04;;;;;;;2.95;2.20;;;20.10;79.00;;;;;;5053176;28;20188;-70
2022/05/11 02:43:30;;;;;;;3.20;2.47;;;20.10;79.80;;;;;;5047112;28;20231;-70
2022/05/11 02:45:58;;;;;;;5.03;2.60;;;20.10;79.70;;;;;;5050967;28;20199;-71
2022/05/11 02:48:25;;;;;;;3.38;2.60;;;20.10;79.90;;;;;;5052058;28;20165;-70
2022/05/11 02:50:55;;;;;;;3.78;2.63;;;20.00;80.10;;;;;;5045964;28;20240;-70
2022/05/11 02:53:26;;;;;;;4.10;2.60;;;20.00;80.60;;;;;;5050418;28;20210;-70
2022/05/11 02:55:53;;;;;;;4.40;2.10;;;20.00;81.20;;;;;;5043059;28;20249;-70
2022/05/11 02:58:26;;;;;;;3.28;2.63;;;20.00;81.00;;;;;;5041179;28;20750;-70
2022/05/11 03:00:53;;;;;;;3.25;2.53;;;19.90;81.50;;;;;;5052125;28;20176;-70
2022/05/11 03:03:22;;;;;;;3.75;2.40;;;19.90;81.30;;;;;;5059897;28;20193;-70
2022/05/11 03:05:52;;;;;;;4.72;2.58;;;19.90;81.70;;;;;;5046741;28;20197;-70
2022/05/11 03:08:20;;;;;;;3.40;2.55;;;19.90;81.80;;;;;;5079219;28;20188;-71
2022/05/11 03:10:48;;;;;;;5.10;2.53;;;19.90;82.00;;;;;;5049592;28;20169;-70
2022/05/11 03:13:14;;;;;;;3.20;2.65;;;19.90;82.30;;;;;;5053118;28;20197;-70
2022/05/11 03:15:42;;;;;;;3.95;2.40;;;19.80;82.50;;;;;;5054525;28;20178;-70
2022/05/11 03:18:08;;;;;;;3.45;2.50;;;19.80;82.80;;;;;;5034605;28;20253;-70
2022/05/11 03:20:34;;;;;;;5.30;2.40;;;19.80;83.00;;;;;;5053399;28;20288;-70
2022/05/11 03:23:00;;;;;;;4.05;2.50;;;19.80;83.30;;;;;;5050519;28;20385;-70
2022/05/11 03:25:31;;;;;;;4.20;2.38;;;19.80;83.70;;;;;;5051870;28;20205;-70
2022/05/11 03:28:00;;;;;;;2.97;2.42;;;19.80;84.00;;;;;;5044992;28;20184;-69
2022/05/11 03:30:25;;;;;;;3.63;3.10;;;19.70;84.30;;;;;;5053653;28;20170;-70
2022/05/11 03:35:40;;;;;;;4.57;3.40;;;19.70;85.00;;;;;;5061873;28;20239;-71
2022/05/11 03:38:05;;;;;;;4.65;3.20;;;19.70;85.80;;;;;;5041724;28;20174;-70
2022/05/11 03:40:38;;;;;;;5.22;3.25;;;19.70;85.60;;;;;;5054019;28;20242;-72
2022/05/11 03:43:04;;;;;;;5.32;4.22;;;19.70;85.90;;;;;;5044889;28;20269;-70
2022/05/11 03:45:32;;;;;;;6.00;4.13;;;19.70;86.30;;;;;;5062601;28;20295;-70
2022/05/11 03:47:58;;;;;;;6.15;4.43;;;19.70;86.70;;;;;;5055278;28;20197;-70
2022/05/11 03:50:26;;;;;;;5.82;4.25;;;19.70;86.90;;;;;;5049252;28;20205;-70
2022/05/11 03:52:54;;;;;;;5.53;3.88;;;19.70;87.30;;;;;;5048151;28;20189;-71
2022/05/11 03:55:23;;;;;;;4.07;3.33;;;19.70;87.70;;;;;;5050895;28;20277;-70
2022/05/11 03:57:49;;;;;;;4.63;3.58;;;19.70;87.90;;;;;;5033550;28;20208;-71
2022/05/11 04:00:21;;;;;;;4.65;3.75;;;19.70;88.20;;;;;;5033602;28;20209;-70
2022/05/11 04:02:52;;;;;;;4.40;3.70;;;19.60;88.50;;;;;;5058132;28;20229;-70
2022/05/11 04:05:19;;;;;;;5.88;3.95;;;19.60;88.70;;;;;;5050826;28;20206;-71
2022/05/11 04:07:47;;;;;;;4.28;3.40;;;19.60;88.80;;;;;;5053155;28;20250;-71
2022/05/11 04:10:15;;;;;;;4.63;3.67;;;19.60;88.90;;;;;;5048631;28;20257;-70
2022/05/11 04:12:41;;;;;;;4.95;3.30;;;19.60;89.30;;;;;;5053604;28;20174;-70
2022/05/11 04:15:08;;;;;;;4.25;3.25;;;19.50;89.40;;;;;;5049610;28;20260;-71
2022/05/11 04:17:35;;;;;;;4.45;3.20;;;19.50;89.80;;;;;;5047629;28;20253;-70
2022/05/11 04:20:04;;;;;;;3.58;2.85;;;19.50;90.00;;;;;;5045900;28;20204;-71
2022/05/11 04:22:30;;;;;;;4.82;3.38;;;19.60;90.10;;;;;;5065044;28;20171;-71
2022/05/11 04:24:57;;;;;;;5.95;3.50;;;19.50;90.20;;;;;;5046363;28;20195;-71
2022/05/11 04:27:25;;;;;;;16.83;13.38;;;19.50;90.30;;;;;;5052810;28;20194;-70
2022/05/11 04:29:54;;;;;;;8.43;7.15;;;19.60;90.50;;;;;;5053527;28;20174;-70
2022/05/11 04:32:22;;;;;;;6.65;5.47;;;19.60;90.80;;;;;;5050485;28;20280;-71
2022/05/11 04:34:48;;;;;;;5.20;4.60;;;19.50;90.80;;;;;;5052822;28;20181;-70
2022/05/11 04:37:14;;;;;;;4.28;3.70;;;19.50;90.90;;;;;;5035579;28;20189;-71
2022/05/11 04:39:40;;;;;;;4.47;3.40;;;19.50;91.00;;;;;;5051295;28;20279;-70
2022/05/11 04:42:11;;;;;;;3.65;3.17;;;19.50;91.20;;;;;;5055204;28;20509;-70
2022/05/11 04:44:39;;;;;;;3.90;3.08;;;19.50;91.50;;;;;;5055415;28;20173;-70
2022/05/11 04:47:10;;;;;;;4.18;3.33;;;19.50;91.30;;;;;;5053034;28;20214;-70
2022/05/11 04:49:36;;;;;;;3.20;2.90;;;19.50;91.50;;;;;;5058826;28;20176;-71
2022/05/11 04:52:10;;;;;;;3.17;2.85;;;19.50;91.50;;;;;;5050906;28;20188;-71
2022/05/11 04:54:43;;;;;;;3.95;3.08;;;19.50;91.90;;;;;;5032975;28;20176;-70
2022/05/11 04:57:10;;;;;;;3.25;2.95;;;19.50;92.00;;;;;;5040679;28;20213;-70
2022/05/11 04:59:41;;;;;;;3.60;3.05;;;19.50;91.80;;;;;;5050087;28;20174;-70
2022/05/11 05:02:20;;;;;;;5.05;2.75;;;19.40;91.90;;;;;;5052640;28;20314;-69
2022/05/11 05:04:48;;;;;;;6.00;2.75;;;19.40;92.10;;;;;;5069108;28;20204;-70
2022/05/11 05:07:14;;;;;;;3.95;3.00;;;19.40;91.80;;;;;;5069037;28;20300;-71
2022/05/11 05:09:41;;;;;;;3.45;2.90;;;19.40;92.00;;;;;;5067641;28;20177;-70
2022/05/11 05:12:08;;;;;;;3.28;2.97;;;19.40;92.00;;;;;;5044704;28;20197;-71
2022/05/11 05:14:34;;;;;;;3.83;3.00;;;19.40;92.10;;;;;;5048836;28;20257;-70
2022/05/11 05:17:03;;;;;;;3.42;2.80;;;19.50;92.20;;;;;;5032451;28;20354;-70
2022/05/11 05:19:29;;;;;;;2.70;2.45;;;19.50;92.20;;;;;;5048891;28;20206;-69
2022/05/11 05:21:55;;;;;;;2.83;2.50;;;19.50;92.30;;;;;;5049056;28;20171;-70
2022/05/11 05:24:23;;;;;;;3.00;2.42;;;19.60;92.30;;;;;;5058964;28;20194;-70
2022/05/11 05:26:49;;;;;;;3.35;2.55;;;19.70;92.40;;;;;;5046660;28;20260;-71
2022/05/11 05:31:59;;;;;;;3.30;2.50;;;19.80;92.20;;;;;;5037150;28;20188;-71
2022/05/11 05:34:28;;;;;;;2.58;2.13;;;19.90;92.20;;;;;;5085028;28;20500;-70
2022/05/11 05:36:54;;;;;;;2.78;2.40;;;20.00;92.20;;;;;;5060922;28;20177;-70
2022/05/11 05:39:20;;;;;;;6.10;2.53;;;20.10;92.10;;;;;;5051246;28;20240;-70
2022/05/11 05:41:47;;;;;;;3.20;2.40;;;20.10;92.00;;;;;;5047976;28;20182;-70
2022/05/11 05:44:15;;;;;;;2.60;2.40;;;20.20;92.00;;;;;;5063031;28;20201;-70
2022/05/11 05:46:41;;;;;;;2.95;2.50;;;20.30;92.00;;;;;;5049122;28;20254;-70
2022/05/11 05:49:07;;;;;;;2.78;2.17;;;20.40;92.10;;;;;;5064704;28;20200;-70
2022/05/11 05:51:36;;;;;;;2.55;2.35;;;20.40;92.10;;;;;;5050480;28;20197;-69
2022/05/11 05:54:05;;;;;;;3.22;2.33;;;20.50;92.00;;;;;;5086678;28;20219;-70
2022/05/11 05:56:32;;;;;;;3.45;2.40;;;20.50;91.90;;;;;;5045659;28;20197;-69
2022/05/11 05:59:05;;;;;;;2.33;2.13;;;20.60;91.90;;;;;;5040525;28;20296;-70
2022/05/11 06:01:34;;;;;;;2.38;2.17;;;20.70;92.00;;;;;;5054193;28;20253;-71
2022/05/11 06:04:00;;;;;;;2.70;2.20;;;20.70;91.90;;;;;;5047825;28;20182;-70
2022/05/11 06:06:26;;;;;;;2.65;2.20;;;20.80;91.80;;;;;;5036991;28;20202;-70
2022/05/11 06:08:51;;;;;;;2.80;2.50;;;20.80;91.80;;;;;;5041413;28;20178;-69
2022/05/11 06:11:17;;;;;;;2.50;2.22;;;20.90;91.90;;;;;;5047721;28;20192;-69
2022/05/11 06:13:45;;;;;;;3.05;2.33;;;20.90;91.80;;;;;;5078711;28;20193;-70
2022/05/11 06:16:16;;;;;;;3.13;2.28;;;21.00;91.90;;;;;;5054659;28;20188;-69
2022/05/11 06:18:43;;;;;;;3.38;2.40;;;21.00;91.80;;;;;;5051131;28;20170;-70
2022/05/11 06:21:11;;;;;;;3.08;2.30;;;21.10;91.80;;;;;;5047862;28;20269;-70
2022/05/11 06:23:40;;;;;;;4.95;3.33;;;21.10;91.90;;;;;;5035250;28;20182;-70
2022/05/11 06:26:12;;;;;;;6.20;3.38;;;21.20;92.00;;;;;;5041684;28;20198;-69
2022/05/11 06:28:41;;;;;;;10.07;3.97;;;21.20;91.90;;;;;;5049764;28;20205;-69
2022/05/11 06:31:08;;;;;;;5.47;2.88;;;21.30;91.90;;;;;;5060868;28;20186;-70
2022/05/11 06:33:33;;;;;;;4.47;2.50;;;21.40;91.80;;;;;;5075760;28;20236;-70
2022/05/11 06:36:07;;;;;;;3.40;2.38;;;21.40;91.80;;;;;;5049744;28;20205;-70
2022/05/11 06:38:36;;;;;;;2.45;2.15;;;21.50;91.80;;;;;;5043708;28;20181;-70
2022/05/11 06:41:14;;;;;;;3.75;2.40;;;21.60;91.80;;;;;;5054007;28;20189;-71
2022/05/11 06:43:42;;;;;;;3.15;2.40;;;21.60;91.80;;;;;;5055020;28;20410;-70
2022/05/11 06:46:08;;;;;;;2.40;2.15;;;21.70;91.80;;;;;;5035716;28;20198;-72
2022/05/11 06:48:34;;;;;;;2.95;2.33;;;21.80;91.80;;;;;;5045151;28;20234;-70
2022/05/11 06:50:59;;;;;;;3.33;2.35;;;21.90;91.60;;;;;;5054927;28;20188;-71
2022/05/11 06:53:25;;;;;;;3.08;2.58;;;21.90;91.60;;;;;;5055124;28;20169;-71
2022/05/11 07:01:21;;;;;;;2.72;2.20;;;22.10;91.40;;;;;;5056959;28;20196;-70
2022/05/11 07:03:47;;;;;;;2.38;2.15;;;22.20;91.30;;;;;;5051891;28;20201;-71
2022/05/11 07:06:13;;;;;;;5.32;2.22;;;22.30;91.30;;;;;;5053910;28;20197;-71
2022/05/11 07:08:45;;;;;;;2.60;2.03;;;22.30;91.30;;;;;;5070772;28;20176;-71
2022/05/11 07:14:03;;;;;;;2.72;2.20;;;22.50;91.20;;;;;;5048442;28;20311;-71
2022/05/11 07:16:29;;;;;;;5.45;2.38;;;22.60;91.10;;;;;;5061082;28;20185;-71
2022/05/11 07:18:54;;;;;;;2.60;2.35;;;22.60;91.10;;;;;;5046823;28;20201;-72
2022/05/11 07:21:22;;;;;;;4.15;2.55;;;22.70;91.00;;;;;;5054243;28;20275;-72
2022/05/11 07:23:48;;;;;;;2.85;2.53;;;22.70;90.90;;;;;;5035012;28;20182;-71
2022/05/11 07:26:15;;;;;;;3.33;2.50;;;22.80;90.80;;;;;;5067915;28;20280;-70
2022/05/11 07:28:41;;;;;;;5.18;2.88;;;22.90;90.60;;;;;;5068329;28;20181;-71
2022/05/11 07:31:06;;;;;;;4.90;3.22;;;23.00;90.60;;;;;;5044479;28;20197;-71
2022/05/11 07:33:34;;;;;;;3.65;2.47;;;23.00;90.60;;;;;;5065235;28;20161;-71
2022/05/11 07:36:02;;;;;;;3.45;2.28;;;23.10;90.40;;;;;;5053507;28;20215;-71
2022/05/11 07:38:28;;;;;;;2.85;2.13;;;23.20;90.40;;;;;;5070022;28;20207;-71
2022/05/11 07:40:54;;;;;;;2.90;2.40;;;23.20;90.40;;;;;;5047670;28;20210;-71
2022/05/11 07:43:20;;;;;;;2.75;2.35;;;23.30;89.50;;;;;;5074585;28;20225;-71
2022/05/11 07:45:46;;;;;;;2.78;2.30;;;23.40;88.60;;;;;;5044877;28;20194;-71
2022/05/11 07:48:14;;;;;;;3.22;2.30;;;23.40;88.00;;;;;;5035299;28;20174;-70
2022/05/11 07:50:41;;;;;;;3.42;2.20;;;23.50;87.70;;;;;;5074670;28;20452;-70
2022/05/11 07:53:09;;;;;;;2.45;2.10;;;23.60;87.50;;;;;;5046994;28;20180;-71
2022/05/11 07:55:37;;;;;;;2.60;2.40;;;23.70;87.60;;;;;;5043199;28;20255;-70
2022/05/11 08:00:52;;;;;;;4.18;2.45;;;23.80;86.90;;;;;;5053719;28;20359;-71
2022/05/11 08:03:20;;;;;;;4.53;2.33;;;23.90;86.60;;;;;;5054741;28;20198;-70
2022/05/11 08:05:53;;;;;;;3.05;2.00;;;23.90;86.50;;;;;;5051297;28;20289;-71
2022/05/11 08:08:19;;;;;;;2.65;2.10;;;24.00;86.40;;;;;;5041701;28;20231;-69
2022/05/11 08:10:46;;;;;;;2.65;2.15;;;24.10;86.10;;;;;;5050945;28;20176;-69
2022/05/11 08:13:18;;;;;;;3.38;2.08;;;24.20;85.30;;;;;;5049934;28;20185;-70
2022/05/11 08:15:47;;;;;;;2.83;2.20;;;24.30;84.80;;;;;;5051842;28;20334;-69
2022/05/11 08:18:15;;;;;;;3.38;2.00;;;24.40;84.80;;;;;;5044707;28;20208;-68
2022/05/11 08:20:44;;;;;;;3.17;2.20;;;24.40;85.30;;;;;;5080053;28;20355;-67
2022/05/11 08:23:11;;;;;;;3.63;2.30;;;24.50;84.10;;;;;;5036310;28;20223;-69
2022/05/11 08:25:38;;;;;;;3.08;2.47;;;24.60;83.70;;;;;;5056415;28;20288;-66
2022/05/11 08:28:17;;;;;;;3.35;2.63;;;24.60;83.20;;;;;;5066588;28;20363;-69
2022/05/11 08:33:32;;;;;;;2.75;1.95;;;24.70;82.00;;;;;;5046424;28;20311;-69
2022/05/11 08:36:07;;;;;;;2.92;2.13;;;24.70;82.40;;;;;;5057990;28;20187;-67
2022/05/11 08:38:39;;;;;;;3.10;2.50;;;24.90;82.30;;;;;;5086190;28;20172;-69
2022/05/11 08:41:29;;;;;;;3.45;2.90;;;24.90;82.00;;;;;;5051193;28;20204;-69
2022/05/11 08:44:18;;;;;;;2.88;2.50;;;25.00;79.60;;;;;;5064219;28;20256;-69
2022/05/11 08:47:02;;;;;;;3.60;2.15;;;25.00;80.70;;;;;;5041961;28;20205;-68
2022/05/11 08:49:52;;;;;;;3.53;2.30;;;25.10;80.10;;;;;;5063639;28;20181;-72
2022/05/11 08:52:38;;;;;;;4.65;2.22;;;25.20;79.80;;;;;;5048345;28;20178;-71
2022/05/11 08:55:07;;;;;;;5.45;2.90;;;25.30;80.10;;;;;;5026556;28;20182;-68
2022/05/11 08:57:33;;;;;;;3.95;2.58;;;25.40;79.80;;;;;;5048958;28;20239;-69
2022/05/11 09:00:12;;;;;;;2.88;2.40;;;25.50;79.80;;;;;;5043653;28;20244;-65
2022/05/11 09:02:55;;;;;;;2.60;2.40;;;25.60;79.40;;;;;;5085883;28;20174;-69
2022/05/11 09:05:26;;;;;;;2.15;1.95;;;25.80;78.20;;;;;;5052385;28;20205;-69
2022/05/11 09:07:55;;;;;;;3.45;2.40;;;25.90;76.80;;;;;;5087573;28;20268;-71
2022/05/11 09:10:26;;;;;;;2.95;1.95;;;26.00;75.70;;;;;;5052237;28;20178;-69
2022/05/11 09:12:57;;;;;;;3.63;2.10;;;26.10;75.30;;;;;;5054009;28;20177;-69
2022/05/11 09:15:55;;;;;;;4.90;2.55;;;26.20;74.20;;;;;;5055783;28;20376;-71
2022/05/11 09:18:32;;;;;;;3.67;2.40;;;26.20;74.50;;;;;;5060807;28;20263;-70
2022/05/11 09:21:03;;;;;;;2.30;2.00;;;26.20;74.20;;;;;;5059491;28;20181;-70
2022/05/11 09:23:42;;;;;;;3.53;2.45;;;26.30;74.50;;;;;;5053757;28;20204;-73
2022/05/11 09:26:16;;;;;;;3.15;2.00;;;26.40;73.60;;;;;;5048524;28;20193;-71
2022/05/11 09:28:47;;;;;;;3.67;1.92;;;26.40;72.60;;;;;;5051949;28;20268;-71
2022/05/11 09:31:24;;;;;;;3.03;1.92;;;26.50;72.70;;;;;;5039712;28;20254;-67
2022/05/11 09:34:04;;;;;;;2.25;1.60;;;26.50;73.70;;;;;;5046939;28;20208;-73
2022/05/11 09:36:42;;;;;;;2.45;1.67;;;26.60;73.10;;;;;;5058472;28;20201;-72
2022/05/11 09:39:16;;;;;;;3.22;1.98;;;26.60;72.90;;;;;;5065298;28;20228;-73
2022/05/11 09:41:49;;;;;;;2.78;2.08;;;26.70;72.70;;;;;;5072656;28;20449;-76
2022/05/11 09:44:23;;;;;;;2.65;1.60;;;26.80;72.60;;;;;;5055163;28;20197;-80
2022/05/11 09:46:59;;;;;;;2.20;1.95;;;26.90;72.60;;;;;;5054272;28;20203;-68
2022/05/11 09:49:26;;;;;;;2.10;1.70;;;27.00;72.10;;;;;;5046672;28;20181;-80
2022/05/11 09:51:55;;;;;;;2.50;2.00;;;27.10;71.70;;;;;;5036018;28;20284;-71
2022/05/11 09:54:27;;;;;;;5.35;2.17;;;27.10;70.70;;;;;;5053245;28;20204;-78
2022/05/11 09:57:08;;;;;;;2.47;2.00;;;27.10;70.40;;;;;;5055804;28;20177;-76
2022/05/11 09:59:49;;;;;;;3.20;2.10;;;27.10;70.30;;;;;;5051792;28;20205;-75
2022/05/11 10:02:37;;;;;;;2.83;2.13;;;27.10;71.10;;;;;;5085601;28;20212;-71
2022/05/11 10:05:13;;;;;;;7.80;2.55;;;27.20;68.80;;;;;;5077279;28;20224;-77
2022/05/11 10:07:59;;;;;;;2.95;1.90;;;27.20;68.90;;;;;;5053793;28;20291;-77
2022/05/11 10:10:26;;;;;;;12.35;2.40;;;27.30;68.00;;;;;;5051882;28;20260;-74
2022/05/11 10:12:58;;;;;;;3.15;2.13;;;27.30;67.60;;;;;;5064527;28;20177;-72
2022/05/11 10:21:56;;;;;;;2.63;2.13;;;27.40;64.80;;;;;;5051709;28;20196;-77
2022/05/11 10:24:50;;;;;;;3.00;2.42;;;27.50;64.40;;;;;;5037679;28;20197;-74
2022/05/11 10:27:47;;;;;;;4.65;2.03;;;27.60;64.60;;;;;;5054562;28;20240;-77
2022/05/11 10:30:16;;;;;;;4.45;2.25;;;27.90;63.10;;;;;;5051575;28;20189;-76
2022/05/11 10:32:48;;;;;;;4.13;2.22;;;28.10;64.10;;;;;;5047682;28;20238;-73
2022/05/11 10:35:31;;;;;;;4.57;1.90;;;28.20;62.70;;;;;;5046327;28;20169;-75
2022/05/11 10:38:06;;;;;;;3.63;2.30;;;28.30;61.60;;;;;;5071483;28;20266;-72
2022/05/11 10:40:55;;;;;;;3.20;2.17;;;28.50;61.60;;;;;;5054753;28;20211;-76
2022/05/11 10:43:27;;;;;;;2.80;2.15;;;28.60;60.10;;;;;;5064211;28;20177;-71
2022/05/11 10:45:58;;;;;;;2.47;2.00;;;28.60;59.80;;;;;;5053200;28;20197;-75
2022/05/11 10:49:09;;;;;;;3.03;2.03;;;28.70;59.80;;;;;;5052779;28;20176;-77
2022/05/11 10:51:45;;;;;;;3.08;2.00;;;28.70;60.10;;;;;;5065598;28;20203;-75
2022/05/11 10:54:23;;;;;;;5.35;2.10;;;28.80;59.90;;;;;;5042576;28;20194;-74
2022/05/11 10:57:21;;;;;;;3.78;2.00;;;28.90;60.40;;;;;;5059308;28;20303;-64
2022/05/11 10:59:56;;;;;;;4.20;2.10;;;29.10;59.60;;;;;;5067331;28;20365;-69
2022/05/11 11:02:51;;;;;;;3.00;1.98;;;29.30;58.90;;;;;;5066201;28;20264;-66
2022/05/11 11:05:39;;;;;;;4.05;2.05;;;29.40;58.60;;;;;;5067649;28;20189;-68
2022/05/11 11:08:16;;;;;;;2.67;2.05;;;29.40;58.70;;;;;;5070196;28;20158;-61
2022/05/11 11:11:16;;;;;;;4.68;1.70;;;29.40;56.90;;;;;;5083689;28;20492;-72
2022/05/11 11:14:02;;;;;;;2.13;1.80;;;29.50;56.00;;;;;;5052049;28;20184;-75
2022/05/11 11:16:32;;;;;;;3.05;2.00;;;29.50;55.60;;;;;;5057663;28;20182;-79
2022/05/11 11:19:01;;;;;;;2.42;1.58;;;29.50;55.70;;;;;;5047898;28;20170;-81
2022/05/11 11:21:30;;;;;;;5.40;2.05;;;29.60;55.90;;;;;;5080634;28;20291;-79
2022/05/11 11:24:33;;;;;;;2.28;1.92;;;29.70;55.70;;;;;;5058789;28;20193;-78
2022/05/11 11:27:03;;;;;;;4.15;1.90;;;29.80;54.90;;;;;;5040187;28;20208;-74
2022/05/11 11:29:32;;;;;;;3.55;1.90;;;29.90;54.90;;;;;;5047798;28;20261;-75
2022/05/11 11:32:00;;;;;;;3.53;1.80;;;30.00;53.50;;;;;;5050433;28;20177;-75
2022/05/11 11:34:29;;;;;;;5.75;1.95;;;30.00;53.00;;;;;;5045682;28;20292;-64
2022/05/11 11:36:59;;;;;;;4.20;2.00;;;30.10;52.10;;;;;;5051329;28;20257;-75
2022/05/11 11:40:00;;;;;;;4.15;1.80;;;30.10;51.60;;;;;;5042227;28;20210;-73
2022/05/11 11:42:36;;;;;;;2.47;1.77;;;30.20;51.60;;;;;;5042336;28;20292;-76
2022/05/11 11:45:10;;;;;;;3.58;1.60;;;30.20;51.00;;;;;;5037390;28;20174;-70
2022/05/11 11:48:17;;;;;;;2.95;1.90;;;30.20;51.20;;;;;;5033542;28;20205;-71
2022/05/11 11:50:53;;;;;;;4.72;2.20;;;30.20;50.80;;;;;;4975133;28;20205;-74
2022/05/11 11:53:29;;;;;;;3.75;1.90;;;30.20;50.20;;;;;;5028799;28;20192;-71
2022/05/11 11:55:55;;;;;;;5.28;1.98;;;30.20;50.10;;;;;;5032272;28;20205;-75
2022/05/11 11:58:30;;;;;;;4.15;1.80;;;30.30;50.40;;;;;;5046592;28;20181;-75
2022/05/11 12:01:11;;;;;;;3.03;1.80;;;30.30;49.60;;;;;;5040979;28;20187;-73
2022/05/11 12:03:58;;;;;;;2.55;1.77;;;30.40;49.50;;;;;;5051612;28;20164;-73
2022/05/11 12:15:15;;;;;;;4.32;1.80;;;30.50;47.80;;;;;;5035818;28;20259;-72
2022/05/11 12:17:42;;;;;;;2.72;1.70;;;30.50;47.40;;;;;;5053575;28;20442;-73
2022/05/11 12:20:17;;;;;;;1.95;1.55;;;30.60;48.40;;;;;;5054192;28;20386;-74
2022/05/11 12:22:51;;;;;;;4.30;1.70;;;30.70;48.40;;;;;;5047484;28;20201;-72
2022/05/11 12:25:21;;;;;;;3.08;2.08;;;30.80;47.50;;;;;;5046955;28;20228;-75
2022/05/11 12:27:47;;;;;;;3.60;2.00;;;30.90;47.90;;;;;;5045681;28;20255;-73
2022/05/11 12:30:39;;;;;;;1.60;1.50;;;30.90;47.00;;;;;;5044709;28;20187;-69
2022/05/11 12:33:07;;;;;;;4.78;1.50;;;31.00;46.90;;;;;;5061459;28;20177;-75
2022/05/11 12:35:41;;;;;;;3.08;1.83;;;31.00;47.30;;;;;;5055014;28;20173;-72
2022/05/11 12:38:06;;;;;;;2.97;1.50;;;31.00;46.80;;;;;;5033533;28;20172;-75
2022/05/11 12:40:42;;;;;;;2.38;1.20;;;31.10;46.10;;;;;;5064983;28;20192;-71
2022/05/11 12:43:16;;;;;;;3.92;1.60;;;31.10;46.20;;;;;;5053382;28;20203;-70
2022/05/11 12:45:49;;;;;;;3.03;1.85;;;31.20;45.60;;;;;;5043430;28;20220;-72
2022/05/11 12:48:42;;;;;;;6.00;1.70;;;31.20;45.10;;;;;;5049359;28;20173;-73
2022/05/11 12:51:15;;;;;;;2.83;1.50;;;31.30;44.80;;;;;;5034864;28;20215;-70
2022/05/11 12:53:56;;;;;;;4.07;1.38;;;31.40;45.60;;;;;;5048871;28;20204;-71
2022/05/11 12:56:31;;;;;;;3.78;1.83;;;31.40;45.00;;;;;;5067931;28;20204;-75
2022/05/11 12:59:23;;;;;;;5.30;1.60;;;31.40;43.70;;;;;;5068425;28;20172;-73
2022/05/11 13:01:49;;;;;;;3.30;1.60;;;31.40;44.10;;;;;;5035081;28;20181;-73
2022/05/11 13:04:20;;;;;;;3.45;1.55;;;31.40;44.10;;;;;;5031781;28;20204;-69
2022/05/11 13:06:51;;;;;;;4.70;1.40;;;31.40;43.50;;;;;;5046055;28;20295;-74
2022/05/11 13:09:24;;;;;;;2.80;1.60;;;31.40;43.50;;;;;;5046059;28;20184;-76
2022/05/11 13:11:51;;;;;;;2.35;1.50;;;31.40;43.40;;;;;;5033796;28;20220;-74
2022/05/11 13:14:36;;;;;;;3.80;1.55;;;31.40;43.60;;;;;;5034818;28;20177;-72
2022/05/11 13:17:07;;;;;;;3.67;1.60;;;31.40;42.50;;;;;;5047080;28;20170;-76
2022/05/11 13:19:34;;;;;;;2.65;1.50;;;31.40;42.60;;;;;;5050712;28;20197;-77
2022/05/11 13:22:05;;;;;;;3.72;1.58;;;31.40;42.50;;;;;;5052337;28;20182;-80
2022/05/11 13:24:46;;;;;;;2.17;1.45;;;31.40;42.60;;;;;;5031814;28;20231;-74
2022/05/11 13:27:39;;;;;;;3.40;1.67;;;31.40;42.60;;;;;;5049725;28;20363;-76
2022/05/11 13:30:29;;;;;;;1.60;1.48;;;31.40;42.40;;;;;;5031633;28;20165;-79
2022/05/11 13:33:25;;;;;;;2.88;1.70;;;31.40;42.60;;;;;;5047874;28;20269;-76
2022/05/11 13:36:11;;;;;;;2.95;1.52;;;31.40;43.10;;;;;;5048847;28;20181;-80
2022/05/11 13:38:38;;;;;;;1.48;1.30;;;31.50;42.50;;;;;;5047661;28;20181;-81
2022/05/11 13:41:05;;;;;;;2.97;1.40;;;31.50;41.80;;;;;;5048285;28;20186;-78
2022/05/11 13:43:44;;;;;;;2.67;1.40;;;31.50;41.60;;;;;;5031707;28;20185;-78
2022/05/11 13:46:35;;;;;;;3.53;1.40;;;31.50;41.80;;;;;;5045077;28;20216;-76